createdAt,value
2018-09-20T00:01:29.414Z,64.50
2018-09-20T00:03:57.731Z,64.60
2018-09-20T00:06:26.059Z,64.60
2018-09-20T00:08:54.422Z,64.80
2018-09-20T00:11:22.764Z,65.00
2018-09-20T00:13:51.101Z,65.30
2018-09-20T00:16:19.415Z,65.40
2018-09-20T00:18:47.788Z,65.50
2018-09-20T00:21:16.107Z,65.50
2018-09-20T00:23:44.477Z,65.70
2018-09-20T00:26:12.824Z,65.60
2018-09-20T00:28:41.167Z,65.70
2018-09-20T00:31:09.474Z,65.60
2018-09-20T00:33:37.827Z,65.70
2018-09-20T00:36:06.096Z,65.80
2018-09-20T00:38:34.662Z,66.10
2018-09-20T00:41:02.983Z,66.40
2018-09-20T00:43:31.337Z,66.70
2018-09-20T00:45:59.667Z,66.90
2018-09-20T00:48:28.003Z,67.30
2018-09-20T00:50:56.343Z,67.50
2018-09-20T00:53:24.695Z,67.70
2018-09-20T00:55:53.060Z,67.90
2018-09-20T00:58:21.403Z,68.00
2018-09-20T01:00:49.808Z,68.10
2018-09-20T01:03:18.153Z,68.20
2018-09-20T01:05:54.607Z,68.30
2018-09-20T01:08:22.961Z,68.30
2018-09-20T01:10:51.319Z,68.40
2018-09-20T01:13:19.673Z,68.50
2018-09-20T01:15:47.988Z,68.50
2018-09-20T01:18:16.334Z,68.50
2018-09-20T01:20:44.662Z,68.80
2018-09-20T01:23:13.015Z,68.90
2018-09-20T01:25:41.344Z,69.00
2018-09-20T01:28:10.209Z,69.30
2018-09-20T01:30:38.529Z,69.30
2018-09-20T01:33:06.899Z,69.40
2018-09-20T01:35:35.314Z,69.60
2018-09-20T01:38:03.639Z,69.60
2018-09-20T01:40:31.969Z,69.80
2018-09-20T01:43:00.739Z,70.00
2018-09-20T01:45:29.287Z,70.30
2018-09-20T01:47:57.861Z,70.40
2018-09-20T01:50:26.288Z,70.60
2018-09-20T01:52:54.602Z,70.90
2018-09-20T01:55:23.042Z,71.00
2018-09-20T01:57:51.354Z,71.40
2018-09-20T02:00:19.842Z,71.60
2018-09-20T02:02:48.150Z,71.60
2018-09-20T02:05:16.480Z,71.90
2018-09-20T02:07:44.790Z,72.00
2018-09-20T02:10:13.162Z,72.20
2018-09-20T02:12:41.482Z,72.20
2018-09-20T02:15:09.831Z,72.40
2018-09-20T02:17:38.140Z,72.50
2018-09-20T02:20:06.579Z,73.40
2018-09-20T02:22:34.863Z,72.80
2018-09-20T02:25:03.198Z,72.90
2018-09-20T02:27:31.526Z,72.80
2018-09-20T02:29:59.892Z,72.80
2018-09-20T02:32:28.220Z,72.80
2018-09-20T02:34:56.559Z,73.00
2018-09-20T02:37:24.893Z,73.10
2018-09-20T02:39:53.247Z,73.40
2018-09-20T02:42:21.579Z,73.40
2018-09-20T02:44:49.915Z,73.50
2018-09-20T02:47:18.457Z,73.60
2018-09-20T02:49:46.839Z,73.60
2018-09-20T02:52:15.145Z,73.40
2018-09-20T02:54:43.480Z,73.50
2018-09-20T02:57:11.816Z,73.40
2018-09-20T02:59:40.165Z,73.50
2018-09-20T03:02:08.493Z,74.10
2018-09-20T03:04:36.844Z,73.60
2018-09-20T03:07:05.169Z,73.70
2018-09-20T03:09:33.530Z,73.80
2018-09-20T03:12:01.896Z,73.70
2018-09-20T03:14:30.248Z,73.70
2018-09-20T03:16:58.584Z,73.80
2018-09-20T03:19:26.928Z,73.90
2018-09-20T03:21:55.267Z,73.90
2018-09-20T03:24:23.609Z,74.00
2018-09-20T03:26:52.034Z,74.20
2018-09-20T03:29:20.359Z,74.20
2018-09-20T03:31:48.700Z,74.20
2018-09-20T03:34:17.029Z,74.40
2018-09-20T03:36:45.355Z,74.10
2018-09-20T03:39:13.697Z,74.70
2018-09-20T03:41:42.125Z,74.20
2018-09-20T03:44:10.467Z,74.20
2018-09-20T03:46:38.824Z,74.60
2018-09-20T03:49:07.219Z,74.60
2018-09-20T03:51:35.680Z,74.80
2018-09-20T03:54:04.003Z,74.90
2018-09-20T03:56:32.381Z,75.10
2018-09-20T03:59:00.710Z,75.30
2018-09-20T04:01:29.063Z,75.40
2018-09-20T04:03:57.392Z,75.40
2018-09-20T04:06:25.727Z,75.60
2018-09-20T04:08:54.043Z,75.70
2018-09-20T04:11:22.404Z,75.90
2018-09-20T04:13:50.728Z,75.90
2018-09-20T04:16:19.093Z,76.10
2018-09-20T04:18:47.435Z,76.20
2018-09-20T04:21:26.060Z,76.20
2018-09-20T04:23:54.377Z,76.20
2018-09-20T04:26:22.715Z,76.20
2018-09-20T04:28:51.040Z,76.50
2018-09-20T04:31:19.404Z,76.60
2018-09-20T04:33:47.841Z,76.60
2018-09-20T04:36:16.187Z,76.80
2018-09-20T04:38:44.503Z,76.90
2018-09-20T04:41:12.851Z,76.80
2018-09-20T04:43:41.179Z,77.10
2018-09-20T04:46:09.519Z,77.10
2018-09-20T04:48:37.853Z,77.30
2018-09-20T04:51:06.251Z,77.30
2018-09-20T04:53:34.567Z,77.40
2018-09-20T04:56:03.004Z,77.60
2018-09-20T04:58:31.325Z,77.70
2018-09-20T05:00:59.710Z,77.70
2018-09-20T05:03:28.043Z,78.00
2018-09-20T05:05:56.439Z,78.00
2018-09-20T05:08:24.764Z,78.10
2018-09-20T05:10:53.127Z,78.20
2018-09-20T05:13:21.451Z,78.30
2018-09-20T05:15:49.837Z,78.40
2018-09-20T05:18:18.158Z,78.40
2018-09-20T05:20:46.526Z,78.40
2018-09-20T05:23:14.848Z,78.40
2018-09-20T05:25:43.179Z,78.50
2018-09-20T05:28:11.634Z,78.70
2018-09-20T05:30:39.967Z,78.80
2018-09-20T05:33:08.356Z,78.70
2018-09-20T05:35:36.706Z,79.10
2018-09-20T05:38:05.044Z,78.80
2018-09-20T05:40:33.371Z,78.90
2018-09-20T05:43:01.706Z,78.80
2018-09-20T05:45:30.014Z,79.10
2018-09-20T05:47:58.342Z,78.90
2018-09-20T05:50:26.643Z,78.80
2018-09-20T05:52:54.965Z,78.70
2018-09-20T05:55:23.296Z,78.60
2018-09-20T05:57:51.803Z,78.50
2018-09-20T06:00:20.135Z,78.40
2018-09-20T06:02:48.459Z,78.20
2018-09-20T06:05:16.766Z,78.10
2018-09-20T06:07:45.103Z,78.10
2018-09-20T06:10:13.603Z,78.80
2018-09-20T06:12:42.026Z,78.00
2018-09-20T06:15:10.553Z,77.80
2018-09-20T06:17:38.982Z,77.90
2018-09-20T06:20:07.507Z,77.60
2018-09-20T06:22:35.923Z,77.50
2018-09-20T06:25:04.467Z,77.30
2018-09-20T06:27:32.934Z,77.30
2018-09-20T06:30:01.248Z,76.90
2018-09-20T06:32:29.626Z,76.90
2018-09-20T06:34:57.955Z,76.60
2018-09-20T06:37:26.398Z,76.70
2018-09-20T06:39:54.731Z,76.50
2018-09-20T06:42:23.094Z,76.40
2018-09-20T06:44:51.434Z,76.20
2018-09-20T06:47:19.783Z,76.00
2018-09-20T06:49:48.129Z,76.00
2018-09-20T06:52:16.487Z,75.70
2018-09-20T06:54:44.807Z,75.40
2018-09-20T06:57:13.159Z,75.10
2018-09-20T06:59:42.271Z,75.00
2018-09-20T07:02:10.626Z,75.00
2018-09-20T07:04:38.964Z,74.50
2018-09-20T07:07:07.324Z,73.70
2018-09-20T07:09:35.674Z,73.60
2018-09-20T07:12:04.076Z,73.10
2018-09-20T07:14:32.405Z,72.50
2018-09-20T07:17:00.796Z,72.10
2018-09-20T07:19:29.143Z,71.80
2018-09-20T07:21:57.483Z,71.30
2018-09-20T07:24:25.835Z,71.10
2018-09-20T07:26:54.188Z,70.90
2018-09-20T07:29:22.552Z,70.70
2018-09-20T07:31:50.920Z,70.50
2018-09-20T07:34:19.280Z,70.10
2018-09-20T07:36:47.621Z,70.00
2018-09-20T07:39:16.199Z,70.00
2018-09-20T07:41:44.544Z,69.70
2018-09-20T07:44:12.903Z,69.50
2018-09-20T07:46:41.268Z,69.20
2018-09-20T07:49:09.692Z,69.10
2018-09-20T07:51:38.039Z,69.00
2018-09-20T07:54:06.405Z,68.90
2018-09-20T07:56:34.808Z,68.60
2018-09-20T07:59:03.139Z,68.40
2018-09-20T08:01:31.542Z,68.20
2018-09-20T08:03:59.937Z,68.00
2018-09-20T08:06:28.277Z,67.90
2018-09-20T08:08:56.688Z,67.80
2018-09-20T08:11:25.067Z,67.50
2018-09-20T08:13:53.435Z,67.20
2018-09-20T08:16:21.804Z,66.70
2018-09-20T08:18:50.141Z,66.40
2018-09-20T08:21:18.491Z,66.00
2018-09-20T08:23:47.076Z,65.60
2018-09-20T08:26:15.456Z,65.60
2018-09-20T08:28:43.811Z,65.10
2018-09-20T08:31:12.155Z,64.70
2018-09-20T08:33:40.512Z,64.40
2018-09-20T08:36:08.859Z,63.90
2018-09-20T08:38:37.211Z,63.60
2018-09-20T08:41:06.131Z,63.30
2018-09-20T08:43:34.474Z,62.90
2018-09-20T08:46:02.809Z,62.50
2018-09-20T08:48:31.155Z,62.50
2018-09-20T08:50:59.555Z,62.20
2018-09-20T08:53:27.856Z,62.80
2018-09-20T08:55:56.221Z,61.80
2018-09-20T08:58:24.584Z,61.70
2018-09-20T09:00:52.910Z,61.60
2018-09-20T09:03:21.284Z,61.40
2018-09-20T09:05:49.690Z,61.20
2018-09-20T09:08:18.023Z,61.30
2018-09-20T09:10:46.388Z,61.10
2018-09-20T09:13:14.799Z,60.80
2018-09-20T09:15:43.166Z,60.70
2018-09-20T09:18:11.488Z,60.40
2018-09-20T09:20:39.845Z,60.00
2018-09-20T09:23:08.206Z,59.80
2018-09-20T09:25:36.560Z,59.70
2018-09-20T09:28:05.354Z,59.60
2018-09-20T09:30:33.762Z,59.60
2018-09-20T09:33:02.091Z,59.40
2018-09-20T09:35:30.439Z,59.10
2018-09-20T09:37:58.768Z,58.70
2018-09-20T09:40:27.118Z,58.50
2018-09-20T09:42:55.567Z,58.10
2018-09-20T09:45:23.923Z,57.90
2018-09-20T09:47:52.269Z,57.70
2018-09-20T09:50:20.619Z,57.50
2018-09-20T09:52:48.972Z,57.70
2018-09-20T09:55:17.338Z,56.90
2018-09-20T09:57:49.883Z,56.50
2018-09-20T10:00:22.456Z,56.00
2018-09-20T10:02:50.796Z,56.60
2018-09-20T10:05:19.152Z,55.90
2018-09-20T10:07:47.478Z,55.40
2018-09-20T10:10:16.095Z,55.20
2018-09-20T10:12:44.462Z,55.00
2018-09-20T10:15:12.872Z,54.60
2018-09-20T10:17:41.204Z,54.10
2018-09-20T10:20:09.563Z,53.80
2018-09-20T10:22:37.895Z,53.80
2018-09-20T10:25:06.246Z,52.60
2018-09-20T10:27:34.585Z,52.90
2018-09-20T10:30:03.665Z,52.90
2018-09-20T10:32:31.987Z,52.80
2018-09-20T10:35:00.416Z,52.40
2018-09-20T10:37:28.739Z,52.60
2018-09-20T10:39:57.148Z,52.80
2018-09-20T10:42:25.453Z,52.90
2018-09-20T10:44:53.790Z,52.70
2018-09-20T10:47:22.195Z,52.70
2018-09-20T10:49:50.707Z,52.60
2018-09-20T10:52:19.052Z,52.70
2018-09-20T10:54:47.409Z,52.60
2018-09-20T10:57:15.779Z,53.00
2018-09-20T10:59:44.127Z,52.40
2018-09-20T11:02:12.465Z,52.00
2018-09-20T11:04:40.859Z,51.40
2018-09-20T11:07:09.259Z,51.20
2018-09-20T11:09:37.603Z,51.10
2018-09-20T11:12:06.569Z,51.10
2018-09-20T11:14:34.909Z,50.90
2018-09-20T11:17:03.262Z,50.50
2018-09-20T11:19:31.635Z,50.10
2018-09-20T11:21:59.987Z,50.10
2018-09-20T11:24:28.441Z,49.80
2018-09-20T11:26:56.787Z,49.30
2018-09-20T11:29:25.125Z,49.50
2018-09-20T11:31:53.483Z,48.40
2018-09-20T11:34:21.807Z,48.10
2018-09-20T11:36:50.155Z,47.90
2018-09-20T11:39:18.478Z,47.90
2018-09-20T11:41:46.835Z,47.90
2018-09-20T11:44:15.163Z,48.20
2018-09-20T11:46:43.586Z,48.50
2018-09-20T11:49:11.863Z,48.60
2018-09-20T11:51:40.394Z,48.80
2018-09-20T11:54:08.729Z,49.00
2018-09-20T11:56:37.083Z,49.00
2018-09-20T11:59:05.418Z,49.00
2018-09-20T12:01:33.776Z,48.90
2018-09-20T12:04:02.107Z,48.70
2018-09-20T12:06:30.513Z,48.30
2018-09-20T12:08:58.843Z,48.20
2018-09-20T12:11:31.785Z,47.90
2018-09-20T12:14:00.122Z,48.00
2018-09-20T12:16:28.480Z,47.80
2018-09-20T12:18:56.832Z,48.10
2018-09-20T12:21:25.204Z,47.90
2018-09-20T12:23:53.536Z,48.00
2018-09-20T12:26:22.207Z,47.80
2018-09-20T12:28:50.644Z,47.50
2018-09-20T12:31:19.123Z,47.50
2018-09-20T12:33:47.544Z,47.70
2018-09-20T12:36:16.214Z,47.50
2018-09-20T12:38:44.563Z,47.70
2018-09-20T12:41:12.908Z,47.90
2018-09-20T12:43:41.236Z,47.90
2018-09-20T12:46:09.631Z,47.60
2018-09-20T12:48:37.974Z,47.80
2018-09-20T12:51:07.004Z,47.70
2018-09-20T12:53:35.341Z,47.70
2018-09-20T12:56:03.791Z,47.20
2018-09-20T12:58:37.912Z,46.70
2018-09-20T13:01:06.477Z,46.60
2018-09-20T13:03:34.812Z,46.00
2018-09-20T13:06:03.169Z,45.90
2018-09-20T13:08:31.525Z,45.40
2018-09-20T13:11:00.234Z,45.20
2018-09-20T13:14:56.178Z,45.20
2018-09-20T13:20:28.211Z,44.60
2018-09-20T13:22:56.504Z,44.80
2018-09-20T13:25:24.914Z,44.40
2018-09-20T13:27:53.266Z,44.20
2018-09-20T13:30:21.603Z,43.90
2018-09-20T13:32:49.948Z,43.80
2018-09-20T13:35:18.283Z,43.60
2018-09-20T13:37:46.614Z,43.30
2018-09-20T13:40:14.928Z,42.30
2018-09-20T13:42:43.288Z,42.50
2018-09-20T13:45:11.632Z,42.60
2018-09-20T13:47:39.983Z,42.80
2018-09-20T13:50:08.401Z,43.00
2018-09-20T13:52:36.783Z,42.90
2018-09-20T13:55:05.323Z,42.50
2018-09-20T13:57:33.666Z,42.00
2018-09-20T14:00:02.005Z,41.40
2018-09-20T14:02:30.359Z,41.70
2018-09-20T14:04:58.822Z,41.50
2018-09-20T14:07:27.174Z,41.70
2018-09-20T14:09:55.499Z,41.40
2018-09-20T14:12:23.863Z,40.90
2018-09-20T14:14:52.225Z,41.10
2018-09-20T14:17:20.575Z,40.50
2018-09-20T14:19:48.944Z,40.40
2018-09-20T14:22:17.282Z,40.30
2018-09-20T14:24:45.739Z,39.70
2018-09-20T14:27:14.284Z,40.40
2018-09-20T14:29:42.672Z,40.80
2018-09-20T14:32:11.509Z,40.80
2018-09-20T14:34:39.839Z,40.50
2018-09-20T14:37:08.199Z,40.30
2018-09-20T14:39:36.535Z,40.00
2018-09-20T14:42:04.915Z,39.40
2018-09-20T14:44:33.248Z,39.60
2018-09-20T14:47:01.684Z,39.40
2018-09-20T14:49:30.036Z,39.00
2018-09-20T14:51:58.359Z,38.40
2018-09-20T14:54:26.724Z,38.60
2018-09-20T14:56:55.104Z,37.10
2018-09-20T14:59:23.469Z,36.30
2018-09-20T15:01:51.791Z,35.90
2018-09-20T15:04:20.131Z,35.30
2018-09-20T15:06:48.736Z,34.70
2018-09-20T15:09:17.090Z,34.40
2018-09-20T15:11:45.456Z,34.10
2018-09-20T15:14:13.797Z,33.60
2018-09-20T15:16:42.176Z,33.80
2018-09-20T15:19:10.524Z,33.80
2018-09-20T15:21:38.852Z,33.80
2018-09-20T15:24:07.243Z,33.90
2018-09-20T15:26:35.567Z,33.50
2018-09-20T15:29:04.032Z,33.10
2018-09-20T15:31:32.374Z,32.70
2018-09-20T15:34:00.720Z,32.00
2018-09-20T15:36:29.072Z,31.80
2018-09-20T15:38:57.426Z,31.50
2018-09-20T15:41:25.782Z,31.60
2018-09-20T15:43:54.185Z,31.90
2018-09-20T15:46:22.499Z,32.00
2018-09-20T15:48:50.821Z,32.20
2018-09-20T15:51:19.138Z,32.00
2018-09-20T15:53:47.478Z,32.30
2018-09-20T15:56:15.783Z,32.20
2018-09-20T15:58:44.136Z,32.10
2018-09-20T16:01:13.036Z,32.20
2018-09-20T16:03:41.374Z,32.40
2018-09-20T16:06:09.773Z,32.70
2018-09-20T16:08:38.429Z,32.90
2018-09-20T16:11:06.799Z,33.00
2018-09-20T16:13:35.140Z,33.50
2018-09-20T16:16:03.488Z,34.10
2018-09-20T16:18:31.833Z,34.40
2018-09-20T16:21:00.187Z,34.90
2018-09-20T16:23:28.537Z,35.40
2018-09-20T16:25:56.871Z,35.80
2018-09-20T16:28:45.313Z,36.20
2018-09-20T16:31:28.115Z,36.30
2018-09-20T16:34:45.860Z,36.50
2018-09-20T16:37:26.128Z,36.70
2018-09-20T16:39:55.372Z,37.30
2018-09-20T16:42:24.440Z,37.40
2018-09-20T16:44:52.771Z,37.30
2018-09-20T16:47:21.102Z,37.40
2018-09-20T16:49:49.451Z,37.80
2018-09-20T16:52:17.768Z,37.60
2018-09-20T16:54:46.099Z,37.70
2018-09-20T16:57:14.440Z,37.90
2018-09-20T16:59:42.771Z,38.00
2018-09-20T17:02:11.099Z,38.20
2018-09-20T17:04:39.439Z,38.40
2018-09-20T17:07:07.770Z,38.60
2018-09-20T17:09:36.120Z,38.80
2018-09-20T17:12:04.479Z,39.00
2018-09-20T17:14:32.843Z,39.10
2018-09-20T17:17:01.168Z,39.30
2018-09-20T17:19:29.505Z,39.40
2018-09-20T17:21:57.850Z,39.50
2018-09-20T17:24:26.163Z,39.70
2018-09-20T17:26:54.494Z,40.00
2018-09-20T17:29:22.839Z,40.20
2018-09-20T17:31:51.184Z,40.40
2018-09-20T17:34:19.665Z,40.70
2018-09-20T17:36:48.986Z,41.10
2018-09-20T17:39:17.844Z,41.60
2018-09-20T17:41:47.256Z,41.90
2018-09-20T17:44:15.583Z,42.30
2018-09-20T17:46:43.996Z,42.60
2018-09-20T17:49:12.303Z,43.00
2018-09-20T17:51:40.997Z,43.50
2018-09-20T17:54:09.631Z,44.00
2018-09-20T17:56:38.311Z,44.50
2018-09-20T17:59:06.753Z,44.90
2018-09-20T18:01:35.097Z,45.30
2018-09-20T18:04:03.424Z,45.60
2018-09-20T18:06:31.772Z,45.90
2018-09-20T18:09:00.111Z,46.20
2018-09-20T18:11:28.496Z,46.60
2018-09-20T18:13:56.860Z,46.70
2018-09-20T18:16:25.215Z,47.00
2018-09-20T18:18:53.659Z,47.20
2018-09-20T18:21:22.004Z,47.30
2018-09-20T18:23:50.327Z,48.10
2018-09-20T18:26:18.678Z,47.80
2018-09-20T18:28:47.057Z,48.10
2018-09-20T18:31:15.416Z,48.20
2018-09-20T18:33:43.817Z,48.90
2018-09-20T18:36:12.160Z,48.50
2018-09-20T18:38:40.509Z,48.60
2018-09-20T18:41:08.840Z,48.80
2018-09-20T18:43:37.197Z,49.00
2018-09-20T18:46:05.531Z,49.20
2018-09-20T18:48:33.897Z,49.50
2018-09-20T18:51:02.230Z,49.70
2018-09-20T18:53:30.587Z,50.00
2018-09-20T18:55:58.907Z,50.10
2018-09-20T18:58:27.272Z,50.30
2018-09-20T19:00:55.808Z,50.50
2018-09-20T19:03:24.509Z,50.80
2018-09-20T19:05:52.848Z,50.90
2018-09-20T19:08:21.379Z,51.20
2018-09-20T19:10:49.861Z,51.40
2018-09-20T19:13:18.753Z,51.70
2018-09-20T19:15:47.071Z,52.10
2018-09-20T19:18:15.499Z,52.30
2018-09-20T19:20:43.874Z,52.70
2018-09-20T19:23:12.219Z,53.10
2018-09-20T19:25:40.569Z,53.40
2018-09-20T19:28:08.933Z,53.70
2018-09-20T19:30:37.641Z,54.10
2018-09-20T19:33:05.998Z,54.40
2018-09-20T19:35:34.343Z,54.70
2018-09-20T19:38:02.718Z,55.00
2018-09-20T19:40:31.055Z,55.30
2018-09-20T19:42:59.401Z,55.60
2018-09-20T19:45:27.757Z,55.70
2018-09-20T19:47:56.140Z,56.00
2018-09-20T19:50:24.489Z,56.30
2018-09-20T19:52:52.841Z,56.60
2018-09-20T19:55:21.207Z,57.00
2018-09-20T19:57:49.537Z,57.30
2018-09-20T20:00:17.925Z,57.60
2018-09-20T20:02:46.344Z,57.70
2018-09-20T20:05:14.695Z,58.20
2018-09-20T20:07:44.478Z,58.30
2018-09-20T20:10:12.912Z,58.60
2018-09-20T20:12:41.274Z,58.80
2018-09-20T20:15:09.296Z,59.20
2018-09-20T20:17:37.628Z,59.60
2018-09-20T20:20:06.216Z,59.90
2018-09-20T20:22:34.542Z,60.20
2018-09-20T20:25:02.971Z,60.60
2018-09-20T20:27:31.423Z,61.10
2018-09-20T20:29:59.838Z,61.60
2018-09-20T20:32:28.195Z,62.00
2018-09-20T20:34:56.551Z,62.30
2018-09-20T20:37:24.868Z,62.60
2018-09-20T20:39:53.270Z,62.90
2018-09-20T20:42:21.669Z,62.90
2018-09-20T20:44:50.043Z,63.20
2018-09-20T20:47:18.406Z,62.70
2018-09-20T20:49:46.756Z,62.70
2018-09-20T20:52:16.916Z,62.70
2018-09-20T20:54:45.443Z,62.30
2018-09-20T20:57:13.785Z,62.00
2018-09-20T20:59:42.211Z,61.80
2018-09-20T21:02:10.626Z,61.70
2018-09-20T21:04:38.970Z,61.50
2018-09-20T21:07:07.295Z,61.30
2018-09-20T21:09:35.712Z,61.10
2018-09-20T21:12:04.054Z,60.80
2018-09-20T21:14:32.430Z,60.60
2018-09-20T21:17:34.985Z,60.40
2018-09-20T21:20:03.591Z,60.30
2018-09-20T21:22:31.919Z,60.00
2018-09-20T21:25:00.292Z,59.90
2018-09-20T21:27:28.616Z,59.80
2018-09-20T21:29:57.117Z,59.80
2018-09-20T21:32:25.477Z,59.90
2018-09-20T21:34:53.814Z,59.60
2018-09-20T21:37:22.295Z,59.60
2018-09-20T21:39:51.223Z,59.50
2018-09-20T21:42:19.588Z,59.40
2018-09-20T21:44:47.955Z,59.30
2018-09-20T21:47:16.564Z,59.30
2018-09-20T21:49:44.930Z,59.30
2018-09-20T21:52:13.284Z,59.40
2018-09-20T21:54:41.627Z,60.00
2018-09-20T21:57:09.981Z,59.30
2018-09-20T21:59:38.343Z,59.50
2018-09-20T22:02:06.763Z,59.50
2018-09-20T22:04:35.139Z,59.40
2018-09-20T22:07:03.499Z,59.50
2018-09-20T22:09:31.940Z,59.50
2018-09-20T22:12:00.312Z,59.80
2018-09-20T22:14:28.655Z,59.60
2018-09-20T22:16:56.993Z,59.70
2018-09-20T22:19:25.305Z,59.70
2018-09-20T22:21:53.642Z,59.70
2018-09-20T22:24:21.967Z,59.80
2018-09-20T22:26:50.302Z,59.80
2018-09-20T22:29:18.622Z,59.80
2018-09-20T22:31:47.214Z,59.80
2018-09-20T22:34:15.518Z,59.90
2018-09-20T22:36:43.847Z,60.00
2018-09-20T22:39:12.217Z,60.00
2018-09-20T22:41:40.569Z,60.00
2018-09-20T22:44:10.040Z,60.00
2018-09-20T22:46:39.604Z,60.00
2018-09-20T22:49:09.219Z,60.00
2018-09-20T22:51:38.211Z,59.90
2018-09-20T22:54:06.762Z,59.90
2018-09-20T22:56:35.079Z,59.80
2018-09-20T22:59:03.461Z,59.70
2018-09-20T23:01:31.795Z,59.50
2018-09-20T23:04:00.206Z,59.50
2018-09-20T23:06:28.547Z,59.40
2018-09-20T23:08:56.856Z,59.50
2018-09-20T23:11:25.246Z,59.50
2018-09-20T23:13:53.576Z,59.10
2018-09-20T23:16:22.008Z,59.00
2018-09-20T23:18:50.362Z,58.70
2018-09-20T23:21:18.747Z,58.50
2018-09-20T23:23:47.067Z,58.40
2018-09-20T23:26:15.415Z,58.20
2018-09-20T23:28:43.740Z,58.00
2018-09-20T23:31:12.079Z,58.00
2018-09-20T23:33:40.395Z,57.80
2018-09-20T23:36:08.710Z,57.80
2018-09-20T23:38:37.044Z,57.60
2018-09-20T23:41:05.371Z,57.60
2018-09-20T23:43:33.681Z,57.50
2018-09-20T23:46:02.016Z,57.40
2018-09-20T23:48:30.329Z,57.30
2018-09-20T23:50:58.668Z,57.20
2018-09-20T23:53:26.972Z,57.20
2018-09-20T23:55:55.510Z,57.20
2018-09-20T23:58:23.827Z,57.10
